Accueil
METAR-TAF:

METAR-TAF

Aéroports :

Bangalore, Inde

latitude: 12-57-00N, longitude: 077-40-06E, altitude: 888 m

Observation

Le bulletin a été fait il y a 2 heures et 15 minutes, à 12:00 UTC
Vent 2 kt de est
Température 31°C
Humidité 29%
Pression 1012 hPa
Visibilité: 8000 m
Nuages épars à une hauteur de 1500 ft

METAR: VOBG 291200Z 09002KT 8000 SCT015 31/11 Q1012 NOSIG

Heure: 19:45 (14:15 UTC)

Prévision

Le bulletin a été fait il y a 3 heures et 15 minutes, à 11:00 UTC
Prévision valable du 29 à 12 UTC au 29 à 21 UTC
Vent 5 kt de est/sud-est
Visibilité: 6000 m
Quelques nuages à une hauteur de 1200 ft

TAF: VOBG 291100Z 2912/2921 11005KT 6000 FEW012

Observations et prévisions météorologiques de plus de 4000 aéroports (messages METAR et TAF).

Les stations disponibles sont représentées par des disques jaunes et rouges sur la carte.

Passer la souris dessus pour voir le nom de la station.

Cliquer dessus pour voir les observations et prévisions météorologiques.

Pour changer de carte: cliquez sur les boutons verts avec une croix noire pour zoomer, sur le bouton vert avec un tiret pour effectuer un zoom arrière, ou sur les flèches vertes pour les cartes adjacentes.


METAR-TAF: